createdAt,value
2018-06-14T00:00:41.865Z,64.34
2018-06-14T00:03:10.789Z,64.09
2018-06-14T00:05:39.294Z,64.02
2018-06-14T00:08:08.249Z,64.13
2018-06-14T00:10:36.789Z,64.40
2018-06-14T00:13:05.390Z,64.40
2018-06-14T00:15:33.945Z,63.96
2018-06-14T00:18:02.996Z,63.68
2018-06-14T00:20:31.519Z,64.09
2018-06-14T00:22:59.996Z,64.11
2018-06-14T00:25:28.521Z,64.08
2018-06-14T00:27:57.557Z,64.05
2018-06-14T00:30:26.649Z,64.04
2018-06-14T00:32:55.124Z,64.14
2018-06-14T00:35:25.109Z,64.53
2018-06-14T00:37:53.787Z,64.70
2018-06-14T00:40:22.289Z,64.47
2018-06-14T00:42:51.398Z,64.26
2018-06-14T00:45:19.947Z,64.32
2018-06-14T00:47:49.502Z,63.90
2018-06-14T00:50:18.529Z,63.82
2018-06-14T00:52:47.534Z,64.09
2018-06-14T00:55:16.107Z,64.28
2018-06-14T00:57:45.426Z,64.56
2018-06-14T01:00:13.922Z,64.48
2018-06-14T01:02:43.792Z,64.29
2018-06-14T01:05:12.460Z,64.41
2018-06-14T01:07:41.583Z,64.44
2018-06-14T01:10:10.150Z,64.57
2018-06-14T01:12:38.753Z,64.61
2018-06-14T01:15:07.325Z,64.76
2018-06-14T01:17:36.241Z,65.04
2018-06-14T01:20:05.478Z,65.70
2018-06-14T01:22:33.927Z,65.43
2018-06-14T01:25:02.867Z,65.44
2018-06-14T01:27:31.960Z,66.57
2018-06-14T01:30:01.247Z,67.07
2018-06-14T01:32:29.725Z,67.07
2018-06-14T01:34:58.708Z,66.88
2018-06-14T01:37:38.510Z,67.33
2018-06-14T01:40:07.003Z,66.76
2018-06-14T01:42:37.185Z,66.90
2018-06-14T01:45:05.765Z,67.36
2018-06-14T01:47:34.715Z,67.68
2018-06-14T01:50:04.276Z,67.45
2018-06-14T01:52:39.253Z,67.43
2018-06-14T01:55:08.227Z,67.98
2018-06-14T01:57:36.817Z,68.35
2018-06-14T02:00:05.425Z,69.27
2018-06-14T02:02:33.972Z,69.12
2018-06-14T02:05:02.641Z,70.18
2018-06-14T02:07:31.165Z,70.30
2018-06-14T02:09:59.651Z,71.11
2018-06-14T02:12:28.859Z,70.71
2018-06-14T02:15:06.719Z,70.56
2018-06-14T02:17:35.319Z,70.17
2018-06-14T02:20:03.845Z,69.40
2018-06-14T02:22:33.467Z,68.76
2018-06-14T02:25:02.124Z,68.35
2018-06-14T02:27:31.156Z,67.58
2018-06-14T02:30:00.304Z,67.30
2018-06-14T02:32:29.319Z,68.21
2018-06-14T02:34:57.868Z,68.35
2018-06-14T02:37:27.097Z,68.91
2018-06-14T02:39:55.930Z,68.81
2018-06-14T02:42:24.576Z,68.95
2018-06-14T02:44:53.613Z,68.90
2018-06-14T02:47:22.156Z,69.44
2018-06-14T02:49:52.525Z,69.04
2018-06-14T02:52:21.949Z,69.49
2018-06-14T02:54:50.582Z,69.78
2018-06-14T02:57:19.251Z,69.89
2018-06-14T02:59:48.085Z,69.91
2018-06-14T03:02:16.935Z,69.70
2018-06-14T03:04:45.440Z,69.80
2018-06-14T03:07:18.158Z,69.51
2018-06-14T03:09:47.427Z,69.37
2018-06-14T03:12:15.888Z,69.49
2018-06-14T03:14:44.405Z,69.22
2018-06-14T03:17:13.030Z,69.58
2018-06-14T03:19:41.620Z,69.48
2018-06-14T03:22:10.304Z,69.88
2018-06-14T03:24:38.834Z,70.04
2018-06-14T03:27:07.531Z,70.13
2018-06-14T03:29:36.117Z,69.93
2018-06-14T03:32:04.703Z,69.70
2018-06-14T03:34:34.314Z,69.42
2018-06-14T03:37:03.060Z,69.85
2018-06-14T03:39:31.601Z,69.93
2018-06-14T03:42:12.029Z,69.80
2018-06-14T03:44:40.873Z,69.71
2018-06-14T03:47:10.332Z,69.78
2018-06-14T03:49:40.414Z,69.63
2018-06-14T03:52:11.067Z,69.58
2018-06-14T03:54:40.217Z,70.25
2018-06-14T03:57:09.811Z,70.87
2018-06-14T03:59:38.888Z,70.97
2018-06-14T04:02:08.056Z,70.80
2018-06-14T04:04:36.630Z,71.09
2018-06-14T04:07:05.095Z,71.42
2018-06-14T04:09:33.621Z,71.57
2018-06-14T04:12:03.303Z,71.70
2018-06-14T04:14:31.824Z,71.69
2018-06-14T04:17:03.156Z,71.95
2018-06-14T04:19:31.814Z,71.43
2018-06-14T04:22:01.092Z,71.14
2018-06-14T04:24:29.587Z,70.77
2018-06-14T04:26:58.703Z,70.47
2018-06-14T04:29:32.957Z,70.89
2018-06-14T04:32:01.884Z,71.38
2018-06-14T04:34:31.262Z,71.52
2018-06-14T04:37:00.660Z,71.95
2018-06-14T04:39:34.220Z,71.97
2018-06-14T04:42:02.722Z,71.87
2018-06-14T04:44:31.259Z,71.92
2018-06-14T04:47:02.871Z,71.80
2018-06-14T04:49:31.818Z,71.90
2018-06-14T04:52:00.436Z,72.36
2018-06-14T04:57:07.250Z,72.95
2018-06-14T04:59:37.621Z,73.57
2018-06-14T05:02:10.313Z,73.45
2018-06-14T05:04:38.890Z,73.12
2018-06-14T05:07:07.477Z,73.01
2018-06-14T05:09:42.770Z,72.89
2018-06-14T05:12:12.774Z,72.65
2018-06-14T05:14:42.346Z,72.11
2018-06-14T05:17:15.705Z,72.62
2018-06-14T05:19:47.294Z,72.47
2018-06-14T05:22:18.899Z,71.74
2018-06-14T05:24:53.158Z,71.80
2018-06-14T05:27:27.386Z,71.83
2018-06-14T05:29:55.937Z,71.65
2018-06-14T05:32:24.505Z,71.15
2018-06-14T05:34:57.315Z,70.38
2018-06-14T05:37:26.859Z,70.89
2018-06-14T05:39:56.410Z,71.01
2018-06-14T05:42:25.844Z,71.13
2018-06-14T05:44:54.704Z,70.77
2018-06-14T05:47:24.400Z,70.94
2018-06-14T05:49:53.330Z,70.91
2018-06-14T05:52:23.546Z,70.69
2018-06-14T05:54:52.652Z,70.88
2018-06-14T05:57:21.263Z,70.35
2018-06-14T05:59:49.919Z,70.30
2018-06-14T06:02:22.137Z,70.06
2018-06-14T06:04:51.002Z,70.07
2018-06-14T06:07:20.571Z,69.13
2018-06-14T06:09:51.965Z,68.76
2018-06-14T06:12:29.622Z,67.96
2018-06-14T06:15:05.072Z,67.78
2018-06-14T06:17:34.244Z,67.61
2018-06-14T06:20:12.614Z,67.40
2018-06-14T06:22:48.296Z,67.00
2018-06-14T06:25:16.966Z,67.72
2018-06-14T06:27:50.458Z,67.40
2018-06-14T06:30:21.507Z,66.75
2018-06-14T06:32:50.689Z,67.24
2018-06-14T06:35:22.774Z,67.27
2018-06-14T06:37:51.319Z,67.21
2018-06-14T06:40:19.948Z,66.12
2018-06-14T06:42:51.861Z,66.21
2018-06-14T06:45:24.767Z,66.25
2018-06-14T06:47:54.628Z,65.29
2018-06-14T06:50:28.428Z,64.70
2018-06-14T06:52:57.159Z,64.38
2018-06-14T06:55:37.616Z,64.54
2018-06-14T06:58:16.849Z,64.29
2018-06-14T07:03:20.875Z,62.91
2018-06-14T07:05:49.410Z,63.42
2018-06-14T07:08:17.978Z,61.98
2018-06-14T07:10:46.506Z,61.72
2018-06-14T07:13:16.350Z,60.16
2018-06-14T07:15:50.714Z,59.82
2018-06-14T07:18:20.576Z,60.24
2018-06-14T07:21:06.406Z,58.49
2018-06-14T07:23:35.841Z,57.26
2018-06-14T07:26:07.308Z,56.62
2018-06-14T07:28:36.277Z,56.86
2018-06-14T07:31:10.400Z,56.91
2018-06-14T07:33:42.797Z,53.37
2018-06-14T07:36:13.549Z,53.12
2018-06-14T07:38:44.707Z,53.93
2018-06-14T07:41:14.313Z,52.14
2018-06-14T07:43:50.437Z,49.03
2018-06-14T07:46:24.734Z,44.33
2018-06-14T07:49:06.245Z,44.66
2018-06-14T07:51:35.618Z,42.73
2018-06-14T07:54:04.115Z,45.64
2018-06-14T07:56:32.992Z,47.63
2018-06-14T07:59:01.596Z,47.36
2018-06-14T08:01:31.650Z,48.16
2018-06-14T08:04:00.966Z,45.41
2018-06-14T08:06:29.829Z,44.83
2018-06-14T08:08:58.764Z,44.79
2018-06-14T08:11:29.863Z,44.57
2018-06-14T08:14:00.687Z,43.73
2018-06-14T08:16:29.984Z,42.92
2018-06-14T08:19:03.451Z,45.19
2018-06-14T08:21:32.777Z,42.98
2018-06-14T08:24:01.654Z,43.12
2018-06-14T08:26:30.262Z,42.12
2018-06-14T08:28:59.152Z,41.32
2018-06-14T08:31:29.401Z,42.25
2018-06-14T08:33:58.078Z,39.97
2018-06-14T08:36:34.469Z,39.82
2018-06-14T08:39:12.334Z,39.86
2018-06-14T08:41:42.137Z,39.95
2018-06-14T08:44:12.014Z,39.52
2018-06-14T08:46:41.757Z,39.94
2018-06-14T08:49:11.210Z,41.71
2018-06-14T08:51:39.719Z,41.73
2018-06-14T08:54:10.126Z,39.50
2018-06-14T08:56:39.003Z,39.29
2018-06-14T08:59:08.180Z,39.49
2018-06-14T09:01:38.965Z,41.38
2018-06-14T09:04:08.906Z,40.75
2018-06-14T09:06:37.791Z,40.20
2018-06-14T09:09:10.941Z,40.23
2018-06-14T09:11:42.334Z,40.80
2018-06-14T09:14:11.660Z,40.10
2018-06-14T09:16:40.898Z,40.79
2018-06-14T09:19:13.615Z,41.82
2018-06-14T09:21:42.206Z,42.93
2018-06-14T09:24:11.686Z,41.14
2018-06-14T09:26:48.984Z,39.42
2018-06-14T09:29:17.822Z,40.52
2018-06-14T09:31:46.996Z,38.72
2018-06-14T09:34:17.695Z,40.75
2018-06-14T09:36:48.022Z,41.40
2018-06-14T09:39:16.539Z,41.95
2018-06-14T09:41:45.001Z,40.99
2018-06-14T09:44:13.778Z,42.05
2018-06-14T09:46:42.687Z,40.63
2018-06-14T09:49:17.749Z,39.50
2018-06-14T09:51:48.451Z,38.78
2018-06-14T09:54:17.172Z,39.30
2018-06-14T09:56:46.101Z,39.38
2018-06-14T09:59:14.637Z,38.68
2018-06-14T10:01:43.388Z,40.83
2018-06-14T10:04:12.173Z,40.35
2018-06-14T10:06:40.678Z,38.84
2018-06-14T10:09:11.627Z,38.62
2018-06-14T10:11:40.737Z,39.23
2018-06-14T10:14:10.306Z,39.24
2018-06-14T10:16:42.973Z,38.31
2018-06-14T10:19:13.441Z,39.69
2018-06-14T10:21:42.917Z,38.69
2018-06-14T10:24:11.545Z,38.25
2018-06-14T10:26:40.154Z,39.24
2018-06-14T10:29:10.877Z,39.86
2018-06-14T10:31:43.544Z,38.26
2018-06-14T10:34:12.069Z,40.07
2018-06-14T10:36:41.126Z,41.13
2018-06-14T10:39:10.262Z,39.19
2018-06-14T10:41:43.152Z,39.71
2018-06-14T10:44:12.368Z,38.78
2018-06-14T10:46:42.223Z,38.27
2018-06-14T10:49:10.809Z,39.75
2018-06-14T10:51:40.293Z,39.14
2018-06-14T10:54:10.115Z,41.87
2018-06-14T10:56:39.504Z,40.49
2018-06-14T10:59:08.037Z,39.79
2018-06-14T11:01:36.574Z,37.63
2018-06-14T11:04:05.804Z,37.85
2018-06-14T11:06:34.846Z,36.89
2018-06-14T11:09:08.386Z,36.70
2018-06-14T11:11:37.120Z,37.74
2018-06-14T11:14:06.430Z,37.27
2018-06-14T11:16:39.414Z,39.68
2018-06-14T11:19:13.244Z,38.73
2018-06-14T11:21:54.112Z,37.34
2018-06-14T11:24:29.835Z,39.81
2018-06-14T11:26:58.324Z,37.28
2018-06-14T11:29:31.600Z,37.15
2018-06-14T11:32:04.031Z,38.67
2018-06-14T11:34:32.538Z,37.41
2018-06-14T11:37:01.009Z,39.13
2018-06-14T11:39:31.867Z,38.08
2018-06-14T11:42:00.504Z,38.72
2018-06-14T11:44:32.723Z,39.85
2018-06-14T11:47:01.491Z,38.63
2018-06-14T11:49:30.058Z,38.65
2018-06-14T11:52:04.046Z,36.39
2018-06-14T11:54:33.391Z,36.47
2018-06-14T11:57:05.505Z,39.19
2018-06-14T11:59:34.118Z,36.73
2018-06-14T12:02:03.423Z,36.06
2018-06-14T12:04:33.306Z,37.47
2018-06-14T12:07:04.606Z,37.41
2018-06-14T12:09:35.323Z,35.40
2018-06-14T12:12:03.832Z,37.00
2018-06-14T12:14:39.237Z,35.58
2018-06-14T12:17:08.843Z,37.25
2018-06-14T12:19:38.673Z,36.46
2018-06-14T12:22:07.969Z,35.09
2018-06-14T12:24:40.334Z,36.21
2018-06-14T12:27:11.973Z,35.28
2018-06-14T12:29:40.498Z,36.37
2018-06-14T12:32:08.993Z,36.19
2018-06-14T12:34:37.703Z,36.70
2018-06-14T12:37:06.568Z,36.90
2018-06-14T12:39:35.095Z,35.14
2018-06-14T12:42:08.630Z,35.95
2018-06-14T12:44:39.065Z,37.28
2018-06-14T12:47:10.517Z,36.67
2018-06-14T12:49:39.695Z,35.60
2018-06-14T12:52:11.201Z,35.63
2018-06-14T12:54:40.353Z,32.17
2018-06-14T12:57:09.096Z,31.31
2018-06-14T12:59:44.746Z,29.79
2018-06-14T13:02:17.893Z,31.88
2018-06-14T13:04:46.591Z,31.12
2018-06-14T13:07:20.424Z,28.92
2018-06-14T13:09:49.729Z,28.22
2018-06-14T13:12:21.790Z,27.89
2018-06-14T13:14:50.573Z,27.23
2018-06-14T13:17:19.500Z,25.76
2018-06-14T13:19:48.039Z,26.28
2018-06-14T13:22:23.426Z,24.59
2018-06-14T13:24:51.976Z,23.46
2018-06-14T13:27:20.540Z,22.36
2018-06-14T13:29:49.452Z,21.59
2018-06-14T13:32:21.113Z,23.76
2018-06-14T13:34:51.370Z,25.20
2018-06-14T13:37:20.291Z,26.97
2018-06-14T13:39:49.188Z,27.81
2018-06-14T13:42:22.246Z,27.39
2018-06-14T13:44:50.991Z,26.71
2018-06-14T13:47:22.504Z,27.05
2018-06-14T13:49:51.753Z,25.97
2018-06-14T13:52:21.988Z,26.94
2018-06-14T13:54:50.529Z,27.23
2018-06-14T13:57:19.170Z,27.47
2018-06-14T13:59:50.562Z,25.71
2018-06-14T14:02:19.151Z,25.21
2018-06-14T14:07:28.787Z,26.33
2018-06-14T14:10:01.793Z,26.43
2018-06-14T14:12:30.850Z,24.94
2018-06-14T14:15:01.847Z,23.42
2018-06-14T14:17:30.591Z,26.07
2018-06-14T14:20:01.738Z,26.85
2018-06-14T14:22:33.826Z,27.21
2018-06-14T14:25:02.419Z,26.13
2018-06-14T14:27:36.209Z,27.09
2018-06-14T14:30:04.831Z,27.63
2018-06-14T14:32:34.032Z,27.62
2018-06-14T14:35:02.585Z,27.88
2018-06-14T14:37:35.946Z,28.60
2018-06-14T14:40:08.764Z,28.40
2018-06-14T14:42:37.325Z,27.41
2018-06-14T14:45:15.190Z,27.51
2018-06-14T14:47:49.480Z,30.40
2018-06-14T14:50:23.105Z,30.74
2018-06-14T14:52:52.230Z,29.77
2018-06-14T14:55:21.075Z,29.92
2018-06-14T14:57:49.640Z,30.15
2018-06-14T15:00:28.950Z,29.36
2018-06-14T15:02:59.863Z,30.73
2018-06-14T15:05:28.467Z,31.13
2018-06-14T15:07:58.887Z,30.66
2018-06-14T15:10:28.218Z,31.58
2018-06-14T15:13:02.945Z,30.98
2018-06-14T15:15:32.174Z,31.94
2018-06-14T15:18:07.650Z,31.79
2018-06-14T15:20:44.380Z,31.50
2018-06-14T15:23:13.233Z,31.44
2018-06-14T15:25:41.815Z,31.57
2018-06-14T15:28:10.505Z,32.09
2018-06-14T15:30:39.421Z,31.98
2018-06-14T15:33:07.988Z,32.62
2018-06-14T15:35:36.537Z,32.91
2018-06-14T15:38:05.829Z,33.00
2018-06-14T15:40:36.531Z,34.00
2018-06-14T15:43:05.102Z,35.04
2018-06-14T15:45:34.023Z,33.79
2018-06-14T15:48:02.966Z,34.66
2018-06-14T15:50:32.344Z,34.18
2018-06-14T15:53:00.990Z,34.14
2018-06-14T15:56:37.360Z,34.99
2018-06-14T15:59:08.096Z,35.34
2018-06-14T16:01:37.049Z,36.16
2018-06-14T16:04:06.361Z,36.12
2018-06-14T16:06:35.086Z,36.31
2018-06-14T16:09:04.806Z,36.32
2018-06-14T16:11:33.439Z,36.91
2018-06-14T16:14:02.170Z,36.67
2018-06-14T16:16:30.900Z,36.01
2018-06-14T16:18:59.610Z,35.93
2018-06-14T16:21:28.216Z,35.67
2018-06-14T16:23:56.846Z,35.79
2018-06-14T16:26:26.571Z,35.89
2018-06-14T16:28:56.420Z,35.34
2018-06-14T16:31:25.551Z,35.82
2018-06-14T16:33:56.367Z,36.34
2018-06-14T16:36:25.600Z,37.10
2018-06-14T16:38:54.349Z,36.55
2018-06-14T16:41:23.007Z,35.95
2018-06-14T16:43:53.504Z,35.83
2018-06-14T16:46:28.685Z,36.79
2018-06-14T16:48:57.356Z,36.97
2018-06-14T16:51:25.960Z,36.59
2018-06-14T16:53:54.623Z,36.83
2018-06-14T16:56:23.283Z,36.73
2018-06-14T16:58:51.875Z,36.83
2018-06-14T17:01:20.530Z,36.74
2018-06-14T17:03:49.241Z,36.41
2018-06-14T17:06:18.430Z,36.60
2018-06-14T17:08:49.346Z,36.41
2018-06-14T17:11:20.363Z,37.51
2018-06-14T17:14:05.986Z,37.85
2018-06-14T17:16:36.603Z,38.97
2018-06-14T17:19:07.297Z,39.27
2018-06-14T17:21:36.819Z,38.93
2018-06-14T17:24:05.888Z,38.52
2018-06-14T17:26:34.795Z,39.31
2018-06-14T17:29:03.942Z,37.89
2018-06-14T17:31:32.733Z,39.30
2018-06-14T17:34:01.482Z,38.60
2018-06-14T17:36:31.082Z,37.95
2018-06-14T17:38:59.702Z,38.66
2018-06-14T17:41:29.470Z,37.79
2018-06-14T17:46:25.412Z,39.26
2018-06-14T17:48:55.171Z,38.98
2018-06-14T17:51:24.294Z,39.16
2018-06-14T17:53:53.005Z,39.74
2018-06-14T17:56:21.634Z,40.03
2018-06-14T17:58:51.969Z,40.64
2018-06-14T18:01:21.879Z,40.24
2018-06-14T18:03:52.606Z,40.84
2018-06-14T18:06:24.452Z,40.36
2018-06-14T18:08:54.504Z,40.59
2018-06-14T18:11:25.058Z,41.79
2018-06-14T18:13:55.041Z,41.77
2018-06-14T18:16:25.925Z,42.46
2018-06-14T18:18:56.026Z,42.09
2018-06-14T18:21:26.987Z,42.09
2018-06-14T18:23:56.901Z,42.08
2018-06-14T18:26:27.542Z,41.84
2018-06-14T18:28:56.442Z,42.57
2018-06-14T18:31:26.364Z,42.44
2018-06-14T18:33:56.299Z,42.31
2018-06-14T18:36:25.451Z,42.42
2018-06-14T18:38:55.030Z,42.35
2018-06-14T18:41:23.999Z,42.67
2018-06-14T18:43:53.506Z,43.48
2018-06-14T18:46:23.508Z,44.04
2018-06-14T18:48:52.819Z,43.80
2018-06-14T18:51:27.143Z,43.67
2018-06-14T18:53:57.122Z,43.97
2018-06-14T18:56:32.104Z,44.79
2018-06-14T18:59:00.855Z,44.29
2018-06-14T19:01:30.261Z,45.10
2018-06-14T19:03:58.837Z,46.01
2018-06-14T19:06:27.479Z,45.58
2018-06-14T19:08:57.323Z,46.06
2018-06-14T19:11:26.580Z,46.64
2018-06-14T19:13:55.169Z,46.48
2018-06-14T19:16:24.351Z,46.62
2018-06-14T19:18:53.130Z,47.02
2018-06-14T19:21:22.270Z,47.12
2018-06-14T19:23:51.723Z,47.42
2018-06-14T19:26:20.710Z,47.88
2018-06-14T19:28:49.326Z,47.67
2018-06-14T19:31:18.063Z,47.54
2018-06-14T19:33:47.159Z,48.00
2018-06-14T19:36:15.721Z,47.78
2018-06-14T19:38:44.380Z,48.12
2018-06-14T19:41:12.941Z,48.31
2018-06-14T19:43:41.938Z,48.93
2018-06-14T19:46:10.503Z,49.33
2018-06-14T19:48:40.205Z,49.36
2018-06-14T19:51:08.757Z,49.34
2018-06-14T19:53:37.502Z,49.82
2018-06-14T19:56:06.135Z,49.18
2018-06-14T19:58:34.794Z,49.85
2018-06-14T20:01:03.628Z,49.78
2018-06-14T20:03:32.320Z,49.79
2018-06-14T20:06:02.225Z,50.12
2018-06-14T20:08:30.815Z,49.97
2018-06-14T20:10:59.341Z,50.58
2018-06-14T20:13:27.893Z,50.61
2018-06-14T20:15:56.487Z,50.30
2018-06-14T20:18:24.957Z,50.79
2018-06-14T20:20:53.957Z,50.67
2018-06-14T20:23:22.575Z,51.33
2018-06-14T20:25:51.203Z,51.16
2018-06-14T20:28:19.944Z,50.96
2018-06-14T20:30:48.445Z,51.08
2018-06-14T20:33:17.004Z,51.52
2018-06-14T20:35:45.759Z,51.56
2018-06-14T20:38:14.388Z,51.62
2018-06-14T20:40:43.039Z,51.66
2018-06-14T20:43:11.671Z,52.04
2018-06-14T20:45:40.253Z,52.07
2018-06-14T20:48:09.603Z,52.60
2018-06-14T20:50:38.217Z,53.59
2018-06-14T20:53:07.410Z,53.56
2018-06-14T20:55:36.089Z,54.29
2018-06-14T20:58:04.655Z,54.39
2018-06-14T21:00:33.465Z,54.70
2018-06-14T21:03:01.992Z,55.07
2018-06-14T21:05:30.492Z,55.05
2018-06-14T21:07:59.727Z,55.16
2018-06-14T21:10:28.523Z,55.67
2018-06-14T21:12:57.148Z,56.30
2018-06-14T21:15:25.752Z,56.57
2018-06-14T21:17:54.400Z,56.04
2018-06-14T21:20:23.292Z,55.93
2018-06-14T21:22:52.237Z,56.53
2018-06-14T21:25:20.951Z,56.73
2018-06-14T21:27:50.403Z,56.17
2018-06-14T21:30:19.733Z,56.57
2018-06-14T21:32:48.294Z,56.95
2018-06-14T21:35:17.208Z,56.46
2018-06-14T21:37:45.767Z,56.95
2018-06-14T21:40:14.535Z,57.01
2018-06-14T21:42:43.124Z,57.11
2018-06-14T21:45:11.628Z,57.40
2018-06-14T21:47:40.146Z,56.94
2018-06-14T21:50:08.719Z,56.73
2018-06-14T21:52:37.268Z,57.14
2018-06-14T21:55:05.766Z,56.92
2018-06-14T21:57:34.326Z,56.29
2018-06-14T22:00:02.926Z,56.45
2018-06-14T22:02:31.600Z,56.29
2018-06-14T22:05:00.085Z,57.42
2018-06-14T22:07:28.574Z,57.71
2018-06-14T22:09:57.162Z,58.42
2018-06-14T22:12:25.710Z,59.03
2018-06-14T22:14:54.337Z,60.25
2018-06-14T22:17:22.799Z,60.28
2018-06-14T22:19:51.333Z,61.06
2018-06-14T22:22:20.400Z,61.21
2018-06-14T22:24:48.842Z,61.06
2018-06-14T22:27:17.403Z,60.82
2018-06-14T22:29:46.027Z,60.90
2018-06-14T22:32:14.493Z,61.17
2018-06-14T22:34:53.998Z,61.10
2018-06-14T22:37:23.223Z,60.32
2018-06-14T22:39:51.822Z,59.77
2018-06-14T22:42:20.259Z,60.59
2018-06-14T22:44:48.857Z,60.27
2018-06-14T22:47:17.313Z,59.94
2018-06-14T22:49:46.863Z,59.31
2018-06-14T22:52:56.709Z,58.92
2018-06-14T22:55:25.920Z,59.31
2018-06-14T22:57:54.431Z,59.38
2018-06-14T23:01:43.216Z,59.83
2018-06-14T23:04:12.977Z,59.20
2018-06-14T23:06:41.475Z,58.82
2018-06-14T23:10:29.973Z,58.41
2018-06-14T23:12:58.498Z,59.68
2018-06-14T23:15:27.212Z,60.25
2018-06-14T23:17:55.869Z,59.53
2018-06-14T23:20:25.394Z,59.70
2018-06-14T23:22:56.424Z,60.19
2018-06-14T23:25:25.709Z,60.57
2018-06-14T23:27:54.206Z,60.94
2018-06-14T23:30:22.674Z,60.90
2018-06-14T23:32:51.264Z,59.73
2018-06-14T23:35:19.894Z,59.62
2018-06-14T23:37:48.514Z,60.16
2018-06-14T23:40:16.995Z,59.75
2018-06-14T23:42:45.597Z,59.48
2018-06-14T23:45:14.162Z,59.52
2018-06-14T23:47:42.652Z,59.84
2018-06-14T23:50:11.173Z,60.50
2018-06-14T23:52:39.638Z,61.75
2018-06-14T23:55:08.162Z,61.47
2018-06-14T23:57:36.729Z,60.75
